Time;durP1;ratioP1;P1;durP2;ratioP2;P2;SDS_P1;SDS_P2;PMS_P1;PMS_P2;Temp;Humidity;BMP_temperature;BMP_pressure;BME280_temperature;BME280_humidity;BME280_pressure;Samples;Min_cycle;Max_cycle;Signal;HPM_P1;HPM_P2
2023/12/03 00:00:35;;;;;;;13.95;8.40;;;;;;;0.79;78.55;98448.63;4204689;28;20205;-87
2023/12/03 00:02:39;;;;;;;12.80;9.13;;;;;;;0.78;78.49;98455.44;4188227;28;20202;-88
2023/12/03 00:04:43;;;;;;;12.68;8.02;;;;;;;0.80;78.50;98457.97;4185737;28;20629;-87
2023/12/03 00:06:46;;;;;;;12.88;8.07;;;;;;;0.81;78.16;98452.81;4191727;28;20288;-87
2023/12/03 00:08:51;;;;;;;13.93;8.50;;;;;;;0.83;78.47;98461.34;4202824;28;20221;-87
2023/12/03 00:10:54;;;;;;;12.73;8.27;;;;;;;0.85;78.50;98463.88;4190014;28;20719;-87
2023/12/03 00:12:58;;;;;;;14.10;9.35;;;;;;;0.87;78.57;98473.19;4187489;28;20201;-88
2023/12/03 00:15:01;;;;;;;12.57;8.68;;;;;;;0.87;77.90;98457.78;4188431;28;20216;-87
2023/12/03 00:17:05;;;;;;;12.07;8.05;;;;;;;0.85;77.55;98462.13;4187218;28;20209;-87
2023/12/03 00:19:08;;;;;;;12.45;8.25;;;;;;;0.85;77.78;98459.56;4186250;28;20194;-87
2023/12/03 00:21:11;;;;;;;13.30;8.82;;;;;;;0.89;78.28;98456.06;4175068;28;20217;-87
2023/12/03 00:23:15;;;;;;;12.15;8.43;;;;;;;0.91;78.38;98459.41;4183571;28;20221;-88
2023/12/03 00:25:19;;;;;;;14.90;9.15;;;;;;;0.93;78.62;98460.22;4185394;28;20214;-87
2023/12/03 00:27:22;;;;;;;13.27;8.20;;;;;;;0.93;79.07;98458.50;4205465;28;20211;-87
2023/12/03 00:29:25;;;;;;;14.35;8.70;;;;;;;0.93;78.38;98453.38;4190065;28;20263;-87
2023/12/03 00:31:28;;;;;;;11.77;8.10;;;;;;;0.93;78.52;98465.34;4191687;28;20221;-87
2023/12/03 00:33:31;;;;;;;12.60;8.60;;;;;;;0.95;78.75;98461.03;4175894;28;20214;-87
2023/12/03 00:35:35;;;;;;;13.13;9.07;;;;;;;0.93;78.63;98463.63;4185423;28;20301;-87
2023/12/03 00:37:37;;;;;;;13.50;8.65;;;;;;;0.93;78.68;98468.78;4187916;28;20672;-87
2023/12/03 00:39:40;;;;;;;12.90;8.45;;;;;;;0.92;78.51;98462.81;4187367;28;20685;-86
2023/12/03 00:41:45;;;;;;;16.48;8.70;;;;;;;0.93;78.63;98467.91;4187820;28;20702;-87
2023/12/03 00:43:49;;;;;;;13.45;9.00;;;;;;;0.97;79.25;98469.53;4171506;28;20198;-87
2023/12/03 00:45:53;;;;;;;12.68;8.55;;;;;;;1.01;78.88;98476.28;4186123;28;20217;-88
2023/12/03 00:47:56;;;;;;;14.32;9.10;;;;;;;1.01;79.15;98471.97;4202683;28;20201;-87
2023/12/03 00:49:59;;;;;;;12.63;8.70;;;;;;;0.93;78.11;98478.16;4187933;28;20230;-87
2023/12/03 00:52:02;;;;;;;14.70;9.40;;;;;;;0.90;78.43;98478.25;4185951;28;20202;-87
2023/12/03 00:54:06;;;;;;;11.73;8.15;;;;;;;0.92;78.98;98489.34;4186890;28;20223;-87
2023/12/03 00:56:10;;;;;;;13.55;9.55;;;;;;;0.93;78.58;98491.88;4186732;28;20592;-87
2023/12/03 00:58:14;;;;;;;12.98;9.35;;;;;;;0.93;78.81;98484.16;4187654;28;20206;-87
2023/12/03 01:00:18;;;;;;;13.82;9.43;;;;;;;0.92;78.82;98491.03;4189614;28;20237;-87
2023/12/03 01:02:22;;;;;;;13.55;9.20;;;;;;;0.93;78.82;98491.00;4184064;28;20747;-87
2023/12/03 01:04:25;;;;;;;12.13;7.97;;;;;;;0.94;78.97;98496.09;4173492;28;20836;-88
2023/12/03 01:06:28;;;;;;;13.07;8.95;;;;;;;0.88;78.66;98492.84;4186011;28;20233;-87
2023/12/03 01:08:31;;;;;;;13.55;9.38;;;;;;;0.86;79.39;98501.44;4192362;28;20205;-87
2023/12/03 01:10:34;;;;;;;14.52;9.32;;;;;;;0.85;79.23;98498.06;4188225;28;20218;-87
2023/12/03 01:12:37;;;;;;;14.20;9.70;;;;;;;0.86;79.57;98492.06;4187051;28;20251;-87
2023/12/03 01:14:41;;;;;;;14.60;9.45;;;;;;;0.85;79.20;98499.78;4185114;28;20713;-87
2023/12/03 01:16:46;;;;;;;14.50;9.45;;;;;;;0.85;78.98;98503.19;4181724;28;20295;-87
2023/12/03 01:18:49;;;;;;;22.65;10.40;;;;;;;0.74;79.47;98501.78;4170220;28;20215;-87
2023/12/03 01:20:53;;;;;;;13.90;9.55;;;;;;;0.68;80.10;98502.75;4191230;28;20547;-87
2023/12/03 01:22:56;;;;;;;13.80;9.48;;;;;;;0.69;79.46;98498.44;4187567;28;20555;-88
2023/12/03 01:24:58;;;;;;;13.10;8.77;;;;;;;0.74;80.46;98500.03;4171629;28;20654;-88
2023/12/03 01:27:01;;;;;;;15.60;9.35;;;;;;;0.77;79.73;98510.22;4185721;28;20201;-88
2023/12/03 01:29:05;;;;;;;14.82;9.95;;;;;;;0.79;79.63;98518.72;4186329;28;20206;-87
2023/12/03 01:31:09;;;;;;;14.48;9.20;;;;;;;0.82;78.57;98523.78;4185885;28;20296;-87
2023/12/03 01:33:12;;;;;;;15.43;9.73;;;;;;;0.83;78.53;98527.19;4186522;28;20209;-87
2023/12/03 01:35:17;;;;;;;15.07;9.05;;;;;;;0.88;78.04;98528.78;4173479;28;20218;-87
2023/12/03 01:37:20;;;;;;;13.10;8.35;;;;;;;0.89;77.80;98535.59;4173366;28;20212;-87
2023/12/03 01:39:22;;;;;;;14.02;9.63;;;;;;;0.89;78.28;98532.19;4190846;28;20214;-87
2023/12/03 01:41:26;;;;;;;14.32;9.35;;;;;;;0.91;78.04;98538.13;4183382;28;20293;-87
2023/12/03 01:43:29;;;;;;;13.30;9.02;;;;;;;0.93;77.88;98543.22;4175140;28;20210;-87
2023/12/03 01:45:32;;;;;;;14.27;8.80;;;;;;;0.93;77.35;98544.91;4187945;28;20202;-87
2023/12/03 01:47:37;;;;;;;14.77;8.73;;;;;;;0.90;77.31;98544.16;4192352;28;20198;-88
2023/12/03 01:49:39;;;;;;;13.77;8.48;;;;;;;0.83;78.32;98543.44;4181533;28;20312;-87
2023/12/03 01:51:43;;;;;;;13.85;8.38;;;;;;;0.86;78.17;98548.50;4178512;28;20201;-88
2023/12/03 01:53:47;;;;;;;14.27;8.82;;;;;;;0.91;78.07;98546.69;4191561;28;20594;-87
2023/12/03 01:55:50;;;;;;;13.57;8.73;;;;;;;0.92;77.83;98550.94;4188968;28;20240;-87
2023/12/03 01:57:56;;;;;;;13.13;8.63;;;;;;;0.93;77.57;98554.34;4188648;28;20617;-87
2023/12/03 01:59:59;;;;;;;12.88;8.15;;;;;;;0.93;78.21;98549.19;4173092;28;20195;-88
2023/12/03 02:02:03;;;;;;;12.10;8.57;;;;;;;0.79;77.80;98546.13;4189484;28;20220;-87
2023/12/03 02:04:08;;;;;;;13.80;8.90;;;;;;;0.85;77.46;98553.69;4190495;28;20210;-88
2023/12/03 02:06:10;;;;;;;16.45;9.40;;;;;;;0.81;76.81;98558.03;4190783;28;20201;-87
2023/12/03 02:08:15;;;;;;;14.13;8.80;;;;;;;0.81;77.06;98558.03;4191654;28;20204;-87
2023/12/03 02:10:18;;;;;;;11.68;8.27;;;;;;;0.85;76.71;98559.66;4189761;28;20300;-87
2023/12/03 02:12:21;;;;;;;12.13;8.40;;;;;;;0.87;76.69;98562.19;4192857;28;20297;-87
2023/12/03 02:14:25;;;;;;;12.75;8.60;;;;;;;0.87;76.63;98557.88;4187786;28;20943;-87
2023/12/03 02:16:30;;;;;;;15.23;8.45;;;;;;;0.90;77.15;98560.38;4190389;28;20217;-88
2023/12/03 02:18:33;;;;;;;13.32;9.10;;;;;;;0.93;76.71;98556.03;4189247;28;20292;-87
2023/12/03 02:20:38;;;;;;;17.60;9.30;;;;;;;0.94;76.81;98556.88;4174231;28;20201;-88
2023/12/03 02:23:00;;;;;;;13.57;8.50;;;;;;;0.97;77.75;98562.75;4187803;28;20692;-87
2023/12/03 02:25:05;;;;;;;13.68;9.25;;;;;;;0.99;76.78;98555.03;4188625;28;20240;-88
2023/12/03 02:27:08;;;;;;;12.30;8.90;;;;;;;1.01;77.27;98559.25;4169296;28;20198;-87
2023/12/03 02:29:12;;;;;;;16.50;9.48;;;;;;;0.99;77.10;98552.47;4179120;28;20614;-87
2023/12/03 02:31:16;;;;;;;15.27;9.27;;;;;;;1.00;77.54;98551.59;4188986;28;20253;-87
2023/12/03 02:33:20;;;;;;;13.13;9.63;;;;;;;0.97;77.49;98551.66;4189793;28;20209;-87
2023/12/03 02:35:24;;;;;;;15.20;9.88;;;;;;;0.95;77.22;98551.69;4193960;28;20868;-88
2023/12/03 02:37:27;;;;;;;14.57;9.40;;;;;;;0.92;78.37;98552.63;4186280;28;20788;-87
2023/12/03 02:39:32;;;;;;;14.68;9.30;;;;;;;0.95;77.93;98553.44;4188509;28;20673;-88
2023/12/03 02:41:36;;;;;;;13.48;9.27;;;;;;;0.98;78.09;98550.78;4186851;28;20683;-87
2023/12/03 02:43:39;;;;;;;25.27;10.35;;;;;;;0.97;77.78;98561.94;4188649;28;20201;-88
2023/12/03 02:45:43;;;;;;;14.55;9.05;;;;;;;0.96;77.96;98555.97;4172835;28;20280;-87
2023/12/03 02:47:47;;;;;;;15.85;9.82;;;;;;;0.96;77.89;98555.09;4188101;28;20760;-87
2023/12/03 02:49:50;;;;;;;15.80;9.77;;;;;;;0.94;77.61;98562.00;4188639;28;20217;-87
2023/12/03 02:51:54;;;;;;;15.05;9.10;;;;;;;0.97;77.42;98551.66;4186806;28;20756;-88
2023/12/03 02:53:57;;;;;;;14.30;9.55;;;;;;;0.99;77.81;98555.03;4187093;28;20263;-88
2023/12/03 02:56:02;;;;;;;14.30;9.32;;;;;;;0.92;76.01;98553.50;4191206;28;20237;-87
2023/12/03 02:58:04;;;;;;;15.20;9.95;;;;;;;0.89;76.90;98558.72;4187032;28;20252;-87
2023/12/03 03:00:10;;;;;;;13.50;9.05;;;;;;;0.85;77.17;98554.50;4189281;28;20667;-87
2023/12/03 03:02:14;;;;;;;13.73;8.93;;;;;;;0.85;76.64;98557.09;4189272;28;20231;-87
2023/12/03 03:04:17;;;;;;;14.25;9.57;;;;;;;0.84;77.11;98552.81;4189685;28;20282;-87
2023/12/03 03:06:21;;;;;;;14.50;9.63;;;;;;;0.79;77.53;98556.38;4187759;28;20245;-88
2023/12/03 03:08:25;;;;;;;18.33;11.50;;;;;;;0.76;77.58;98556.47;4192016;28;20219;-87
2023/12/03 03:10:29;;;;;;;13.63;9.07;;;;;;;0.77;77.88;98564.13;4194898;28;20229;-87
2023/12/03 03:12:34;;;;;;;14.57;9.32;;;;;;;0.69;77.68;98560.88;4191093;28;20296;-88
2023/12/03 03:14:38;;;;;;;14.27;9.05;;;;;;;0.70;78.23;98565.13;4191317;28;20233;-87
2023/12/03 03:16:41;;;;;;;15.75;9.60;;;;;;;0.74;78.13;98559.06;4189044;28;20252;-88
2023/12/03 03:18:45;;;;;;;16.13;9.90;;;;;;;0.67;77.82;98559.22;4183686;28;20212;-87
2023/12/03 03:20:49;;;;;;;18.48;10.10;;;;;;;0.66;78.41;98549.81;4172739;28;20562;-87
2023/12/03 03:22:53;;;;;;;16.85;10.00;;;;;;;0.59;78.32;98556.81;4186504;28;20212;-86
2023/12/03 03:24:56;;;;;;;17.48;11.15;;;;;;;0.59;78.02;98553.44;4188739;28;20202;-87
2023/12/03 03:27:00;;;;;;;17.25;10.57;;;;;;;0.58;78.06;98557.69;4182730;28;20210;-88
2023/12/03 03:29:05;;;;;;;16.38;10.25;;;;;;;0.55;77.97;98556.94;4190087;28;20659;-88
2023/12/03 03:31:10;;;;;;;17.42;10.48;;;;;;;0.50;78.63;98559.59;4186794;28;20249;-87
2023/12/03 03:33:13;;;;;;;16.25;10.30;;;;;;;0.52;78.91;98562.13;4188505;28;20205;-87
2023/12/03 03:35:17;;;;;;;16.50;9.77;;;;;;;0.52;78.96;98560.38;4145351;28;1108351;-86
2023/12/03 03:37:20;;;;;;;15.88;10.20;;;;;;;0.57;79.06;98560.28;4188674;28;20632;-87
2023/12/03 03:39:24;;;;;;;18.50;11.13;;;;;;;0.58;78.41;98567.13;4188656;28;20197;-87
2023/12/03 03:41:27;;;;;;;16.77;11.07;;;;;;;0.61;78.51;98569.63;4174687;28;20194;-87
2023/12/03 03:43:31;;;;;;;20.95;11.50;;;;;;;0.59;78.88;98569.66;4188120;28;20213;-87
2023/12/03 03:45:37;;;;;;;18.55;12.15;;;;;;;0.65;78.59;98579.78;4187257;28;20202;-87
2023/12/03 03:47:40;;;;;;;18.17;11.25;;;;;;;0.70;79.06;98572.00;4188202;28;20284;-87
2023/12/03 03:49:44;;;;;;;19.45;11.00;;;;;;;0.70;79.43;98582.25;4175194;28;20229;-87
2023/12/03 03:51:47;;;;;;;19.23;10.32;;;;;;;0.73;79.76;98577.06;4168156;28;20276;-87
2023/12/03 03:53:50;;;;;;;17.23;10.18;;;;;;;0.74;79.35;98576.19;4190124;28;20225;-87
2023/12/03 03:55:54;;;;;;;17.58;10.55;;;;;;;0.75;79.75;98581.28;4189440;28;20564;-87
2023/12/03 03:57:58;;;;;;;17.17;10.52;;;;;;;0.69;78.87;98581.41;4188568;28;20209;-87
2023/12/03 04:00:01;;;;;;;17.52;10.70;;;;;;;0.71;79.02;98579.66;4188028;28;20197;-87
2023/12/03 04:02:15;;;;;;;16.63;10.35;;;;;;;0.76;79.19;98582.13;4186293;28;20200;-87
2023/12/03 04:04:19;;;;;;;15.20;9.23;;;;;;;0.78;79.04;98586.31;4189685;28;20225;-87
2023/12/03 04:06:23;;;;;;;16.23;10.20;;;;;;;0.83;78.79;98588.78;4174423;28;20202;-87
2023/12/03 04:08:27;;;;;;;15.27;9.57;;;;;;;0.83;78.52;98584.50;4189656;28;20288;-87
2023/12/03 04:10:30;;;;;;;17.50;10.90;;;;;;;0.85;79.15;98581.91;4187863;28;20698;-87
2023/12/03 04:12:33;;;;;;;15.57;9.45;;;;;;;0.88;78.94;98586.97;4188699;28;20229;-87
2023/12/03 04:14:37;;;;;;;14.73;9.55;;;;;;;0.87;78.81;98583.53;4187533;28;20839;-87
2023/12/03 04:16:40;;;;;;;14.95;9.93;;;;;;;0.81;78.17;98585.41;4169826;28;20323;-87
2023/12/03 04:18:45;;;;;;;15.63;9.65;;;;;;;0.81;78.13;98581.13;4184243;28;20214;-87
2023/12/03 04:20:49;;;;;;;16.92;10.07;;;;;;;0.80;78.12;98583.72;4187193;28;20258;-87
2023/12/03 04:22:53;;;;;;;16.40;10.55;;;;;;;0.80;78.76;98584.56;4173832;28;20662;-87
2023/12/03 04:24:59;;;;;;;15.45;9.90;;;;;;;0.80;78.21;98584.56;4189665;28;20632;-87
2023/12/03 04:27:03;;;;;;;14.55;9.55;;;;;;;0.75;78.06;98591.53;4199248;28;20197;-86
2023/12/03 04:29:06;;;;;;;18.20;9.60;;;;;;;0.72;78.60;98590.75;4189656;28;20197;-87
2023/12/03 04:31:19;;;;;;;15.45;9.32;;;;;;;0.70;78.00;98588.22;4182476;28;20226;-87
2023/12/03 04:33:22;;;;;;;14.88;9.27;;;;;;;0.69;78.67;98589.13;4172527;28;20222;-87
2023/12/03 04:35:26;;;;;;;16.30;9.90;;;;;;;0.68;78.31;98589.97;4176204;28;20553;-87
2023/12/03 04:37:29;;;;;;;18.02;10.13;;;;;;;0.71;78.77;98589.09;4172296;28;20641;-87
2023/12/03 04:39:32;;;;;;;17.23;10.55;;;;;;;0.75;78.58;98588.13;4190865;28;20209;-88
2023/12/03 04:41:37;;;;;;;14.57;8.73;;;;;;;0.79;78.64;98593.16;4183575;28;20301;-87
2023/12/03 04:43:40;;;;;;;17.92;11.10;;;;;;;0.82;79.05;98592.25;4188726;28;20679;-87
2023/12/03 04:45:44;;;;;;;18.52;9.98;;;;;;;0.82;78.52;98598.22;4187966;28;20229;-87
2023/12/03 04:47:47;;;;;;;13.45;9.05;;;;;;;0.80;79.26;98599.09;4186497;28;20662;-87
2023/12/03 04:49:50;;;;;;;17.80;10.60;;;;;;;0.81;79.11;98599.06;4183221;28;20197;-87
2023/12/03 04:51:55;;;;;;;17.35;10.80;;;;;;;0.85;78.82;98607.56;4184615;28;20269;-87
2023/12/03 04:53:58;;;;;;;16.55;9.00;;;;;;;0.86;78.48;98609.25;4186001;28;20871;-87
2023/12/03 04:56:01;;;;;;;14.48;8.40;;;;;;;0.75;77.85;98606.94;4186044;28;20228;-87
2023/12/03 04:58:05;;;;;;;13.68;9.38;;;;;;;0.71;78.46;98610.44;4193171;28;20605;-88
2023/12/03 05:00:09;;;;;;;14.27;9.05;;;;;;;0.70;78.40;98606.16;4184392;28;20693;-88
2023/12/03 05:02:13;;;;;;;14.65;8.55;;;;;;;0.73;78.11;98602.72;4174423;28;20351;-85
2023/12/03 05:04:16;;;;;;;15.30;9.85;;;;;;;0.72;78.67;98609.56;4203873;28;20246;-87
2023/12/03 05:06:19;;;;;;;13.55;9.05;;;;;;;0.71;79.01;98619.88;4186563;28;20233;-87
2023/12/03 05:08:23;;;;;;;15.77;9.23;;;;;;;0.67;79.43;98608.81;4184834;28;20202;-87
2023/12/03 05:10:26;;;;;;;17.05;10.13;;;;;;;0.66;79.50;98616.53;4186375;28;20623;-87
2023/12/03 05:12:30;;;;;;;16.60;10.07;;;;;;;0.71;79.51;98615.56;4188529;28;20606;-86
2023/12/03 05:14:33;;;;;;;13.10;8.90;;;;;;;0.77;80.21;98619.75;4182748;28;20224;-88
2023/12/03 05:16:37;;;;;;;14.45;8.57;;;;;;;0.79;79.85;98618.81;4183529;28;20289;-87
2023/12/03 05:18:40;;;;;;;13.70;8.45;;;;;;;0.79;79.91;98625.66;4203308;28;20209;-87
2023/12/03 05:20:44;;;;;;;16.42;10.68;;;;;;;0.78;80.34;98637.63;4192043;28;20296;-88
2023/12/03 05:22:46;;;;;;;15.40;9.13;;;;;;;0.80;79.71;98633.34;4184070;28;20546;-87
2023/12/03 05:24:51;;;;;;;16.05;9.68;;;;;;;0.82;80.11;98629.00;4184446;28;20304;-88
2023/12/03 05:26:55;;;;;;;16.10;8.90;;;;;;;0.83;79.79;98628.13;4169865;28;20899;-87
2023/12/03 05:28:58;;;;;;;13.75;8.38;;;;;;;0.83;80.39;98630.69;4185023;28;20206;-87
2023/12/03 05:31:01;;;;;;;13.13;8.60;;;;;;;0.86;79.35;98630.63;4182799;28;20218;-87
2023/12/03 05:33:05;;;;;;;14.23;9.23;;;;;;;0.84;79.59;98623.84;4189207;28;20249;-87
2023/12/03 05:35:09;;;;;;;12.95;8.95;;;;;;;0.76;79.54;98634.25;4187393;28;20619;-87
2023/12/03 05:37:13;;;;;;;13.25;8.68;;;;;;;0.75;79.20;98632.59;4173314;28;20198;-88
2023/12/03 05:39:16;;;;;;;14.32;8.82;;;;;;;0.72;78.69;98632.66;4184783;28;20284;-87
2023/12/03 05:41:21;;;;;;;13.20;8.00;;;;;;;0.73;78.68;98634.34;4190312;28;20212;-87
2023/12/03 05:43:24;;;;;;;13.07;7.80;;;;;;;0.72;78.54;98642.06;4171660;28;20727;-87
2023/12/03 05:45:27;;;;;;;12.38;8.18;;;;;;;0.67;78.93;98644.72;4189153;28;20721;-87
2023/12/03 05:47:31;;;;;;;12.85;8.20;;;;;;;0.68;79.16;98646.41;4190641;28;20629;-87
2023/12/03 05:49:34;;;;;;;12.60;8.15;;;;;;;0.67;78.52;98642.16;4188051;28;20205;-87
2023/12/03 05:51:38;;;;;;;13.35;8.10;;;;;;;0.66;78.58;98642.19;4173458;28;20757;-87
2023/12/03 05:53:41;;;;;;;13.85;8.10;;;;;;;0.64;78.01;98646.50;4173007;28;20280;-87
2023/12/03 05:55:43;;;;;;;12.60;8.15;;;;;;;0.62;78.57;98651.69;4189832;28;20298;-87
2023/12/03 05:57:48;;;;;;;12.70;8.25;;;;;;;0.62;78.47;98655.97;4183392;28;20209;-87
2023/12/03 05:59:50;;;;;;;14.13;8.88;;;;;;;0.60;78.74;98652.56;4191771;28;20236;-87
2023/12/03 06:01:54;;;;;;;14.73;8.73;;;;;;;0.57;77.62;98657.75;4183232;28;20210;-87
2023/12/03 06:03:57;;;;;;;11.48;7.50;;;;;;;0.47;77.73;98657.13;4186119;28;20243;-87
2023/12/03 06:06:00;;;;;;;12.10;7.63;;;;;;;0.38;78.85;98653.06;4192253;28;20206;-87
2023/12/03 06:08:04;;;;;;;14.07;9.07;;;;;;;0.39;78.78;98657.28;4184247;28;20209;-87
2023/12/03 06:10:08;;;;;;;12.35;8.40;;;;;;;0.40;78.83;98653.88;4188592;28;20260;-87
2023/12/03 06:12:11;;;;;;;13.25;8.55;;;;;;;0.42;79.17;98657.22;4187648;28;20233;-87
2023/12/03 06:14:16;;;;;;;14.02;8.35;;;;;;;0.45;78.63;98658.00;4186961;28;20252;-87
2023/12/03 06:16:19;;;;;;;12.63;8.02;;;;;;;0.49;78.98;98659.66;4184305;28;20251;-87
2023/12/03 06:18:24;;;;;;;14.27;8.05;;;;;;;0.51;79.00;98658.75;4174888;28;20614;-87
2023/12/03 06:20:27;;;;;;;13.65;8.35;;;;;;;0.53;78.86;98659.56;4169222;28;20669;-87
2023/12/03 06:22:29;;;;;;;11.48;7.72;;;;;;;0.54;79.39;98666.38;4185708;28;20212;-87
2023/12/03 06:24:33;;;;;;;14.63;8.30;;;;;;;0.56;78.86;98669.75;4182764;28;20202;-87
2023/12/03 06:26:36;;;;;;;11.05;8.07;;;;;;;0.58;78.99;98664.59;4184571;28;20732;-87
2023/12/03 06:28:39;;;;;;;12.95;7.97;;;;;;;0.55;79.03;98673.19;4204224;28;20292;-86
2023/12/03 06:30:43;;;;;;;13.30;8.45;;;;;;;0.53;78.95;98667.25;4186152;28;20205;-87
2023/12/03 06:32:47;;;;;;;13.02;8.15;;;;;;;0.53;78.75;98664.69;4187440;28;20257;-87
2023/12/03 06:34:50;;;;;;;13.52;8.25;;;;;;;0.55;79.13;98652.66;4185759;28;20213;-87
2023/12/03 06:36:54;;;;;;;14.13;8.50;;;;;;;0.55;78.55;98665.50;4188102;28;20209;-87
2023/12/03 06:38:56;;;;;;;12.45;8.40;;;;;;;0.53;77.76;98672.38;4191668;28;20202;-87
2023/12/03 06:40:59;;;;;;;12.18;8.35;;;;;;;0.54;78.37;98675.78;4166807;28;20293;-87
2023/12/03 06:43:03;;;;;;;14.90;8.88;;;;;;;0.51;78.25;98670.72;4186482;28;20295;-87
2023/12/03 06:45:07;;;;;;;11.15;7.45;;;;;;;0.46;79.26;98678.50;4173327;28;20201;-86
2023/12/03 06:47:12;;;;;;;11.95;8.10;;;;;;;0.41;78.51;98668.34;4173792;28;20210;-87
2023/12/03 06:49:15;;;;;;;12.23;7.88;;;;;;;0.38;79.06;98671.00;4186713;28;20210;-86
2023/12/03 06:51:18;;;;;;;13.48;8.75;;;;;;;0.35;79.15;98671.91;4192323;28;20206;-87
2023/12/03 06:53:22;;;;;;;13.48;8.43;;;;;;;0.30;79.34;98667.72;4190621;28;20253;-87
2023/12/03 06:55:25;;;;;;;12.15;8.40;;;;;;;0.31;79.27;98669.44;4189861;28;20210;-88
2023/12/03 06:57:28;;;;;;;12.20;8.43;;;;;;;0.32;78.94;98669.41;4189339;28;20656;-87
2023/12/03 06:59:30;;;;;;;13.02;7.93;;;;;;;0.31;78.82;98669.44;4171425;28;20207;-87
2023/12/03 07:01:34;;;;;;;13.00;8.15;;;;;;;0.29;78.58;98673.75;4192270;28;20228;-87
2023/12/03 07:03:41;;;;;;;15.18;8.93;;;;;;;0.29;78.46;98673.75;4189432;28;20247;-87
2023/12/03 07:05:44;;;;;;;13.90;9.10;;;;;;;0.27;78.26;98678.03;4174020;28;20238;-87
2023/12/03 07:07:50;;;;;;;15.38;8.45;;;;;;;0.25;78.35;98683.19;4189088;28;20288;-86
2023/12/03 07:09:53;;;;;;;13.52;8.77;;;;;;;0.25;78.71;98679.81;4190333;28;20235;-87
2023/12/03 07:11:57;;;;;;;11.77;7.55;;;;;;;0.21;78.39;98683.28;4190058;28;20210;-87
2023/12/03 07:14:00;;;;;;;13.88;9.13;;;;;;;0.22;78.59;98682.41;4187925;28;20241;-87
2023/12/03 07:16:03;;;;;;;14.45;8.95;;;;;;;0.20;79.02;98689.31;4177480;28;20256;-86
2023/12/03 07:18:07;;;;;;;13.13;8.50;;;;;;;0.20;79.20;98697.81;4187266;28;20235;-87
2023/12/03 07:20:12;;;;;;;13.00;8.20;;;;;;;0.16;79.59;98701.31;4176484;28;20206;-88
2023/12/03 07:22:15;;;;;;;15.60;7.55;;;;;;;0.10;78.86;98701.41;4194225;28;20892;-84
2023/12/03 07:24:18;;;;;;;12.63;8.50;;;;;;;0.08;78.72;98702.34;4186724;28;20265;-88
2023/12/03 07:26:22;;;;;;;13.23;7.78;;;;;;;0.10;79.21;98710.84;4183627;28;20208;-84
2023/12/03 07:28:25;;;;;;;12.90;8.82;;;;;;;0.11;79.38;98718.50;4175550;28;20305;-84
2023/12/03 07:30:28;;;;;;;16.10;8.95;;;;;;;0.09;80.01;98714.25;4174838;28;20641;-84
2023/12/03 07:32:31;;;;;;;13.48;8.15;;;;;;;0.05;79.11;98713.47;4189173;28;20654;-84
2023/12/03 07:34:35;;;;;;;14.70;8.90;;;;;;;0.05;79.38;98715.22;4172238;28;20287;-86
2023/12/03 07:36:39;;;;;;;13.55;8.70;;;;;;;0.05;79.66;98718.59;4187294;28;20253;-83
2023/12/03 07:38:43;;;;;;;13.20;8.60;;;;;;;0.16;79.88;98715.84;4189399;28;20722;-85
2023/12/03 07:40:45;;;;;;;12.90;8.68;;;;;;;0.29;79.36;98710.47;4190202;28;20219;-85
2023/12/03 07:42:48;;;;;;;13.70;9.07;;;;;;;0.45;79.29;98713.59;4190917;28;20704;-84
2023/12/03 07:44:51;;;;;;;14.15;9.05;;;;;;;0.60;78.35;98719.28;4207438;28;20204;-84
2023/12/03 07:46:54;;;;;;;12.40;8.13;;;;;;;0.61;78.75;98726.94;4193725;28;20201;-85
2023/12/03 07:48:58;;;;;;;15.05;9.85;;;;;;;0.58;78.94;98719.31;4191264;28;20657;-87
2023/12/03 07:51:01;;;;;;;15.85;9.40;;;;;;;0.59;78.89;98727.88;4190405;28;20640;-85
2023/12/03 07:53:06;;;;;;;13.73;9.07;;;;;;;0.65;78.91;98722.63;4187856;28;20591;-84
2023/12/03 07:55:10;;;;;;;17.90;9.35;;;;;;;0.71;79.38;98725.91;4192920;28;20193;-83
2023/12/03 07:57:13;;;;;;;14.75;8.60;;;;;;;0.82;79.84;98734.22;4191043;28;20251;-84
2023/12/03 07:59:17;;;;;;;18.25;9.90;;;;;;;0.92;79.74;98733.16;4173123;28;20206;-84
2023/12/03 08:01:20;;;;;;;14.55;9.93;;;;;;;1.04;79.05;98732.91;4192748;28;20197;-84
2023/12/03 08:03:23;;;;;;;12.32;8.98;;;;;;;1.12;79.35;98739.56;4173210;28;20740;-83
2023/12/03 08:05:26;;;;;;;16.02;9.98;;;;;;;1.17;78.79;98734.34;4190305;28;20247;-84
2023/12/03 08:07:30;;;;;;;15.57;9.93;;;;;;;1.23;78.51;98731.63;4186197;28;20212;-86
2023/12/03 08:09:35;;;;;;;16.70;9.13;;;;;;;1.30;77.61;98739.19;4183600;28;20213;-84
2023/12/03 08:11:38;;;;;;;14.52;9.52;;;;;;;1.44;77.73;98744.84;4170036;28;20274;-86
2023/12/03 08:13:41;;;;;;;16.80;10.57;;;;;;;1.48;78.30;98744.75;4194249;28;21025;-86
2023/12/03 08:15:44;;;;;;;17.77;10.88;;;;;;;1.58;76.70;98747.94;4190614;28;20206;-86
2023/12/03 08:17:47;;;;;;;14.82;10.15;;;;;;;1.62;76.91;98752.97;4187488;28;20209;-85
2023/12/03 08:19:50;;;;;;;15.48;10.18;;;;;;;1.62;76.41;98752.16;4188686;28;20544;-85
2023/12/03 08:21:56;;;;;;;15.95;10.98;;;;;;;1.66;77.63;98752.03;4187270;28;20206;-85
2023/12/03 08:23:59;;;;;;;15.90;11.07;;;;;;;1.73;77.29;98753.59;4188317;28;20289;-85
2023/12/03 08:26:05;;;;;;;14.23;9.93;;;;;;;1.82;76.20;98757.66;4185617;28;20197;-86
2023/12/03 08:28:08;;;;;;;19.60;10.60;;;;;;;1.89;76.26;98766.06;4187387;28;20895;-85
2023/12/03 08:30:12;;;;;;;18.35;10.43;;;;;;;1.92;76.79;98760.00;4175479;28;20230;-86
2023/12/03 08:32:15;;;;;;;16.83;9.75;;;;;;;1.91;76.72;98760.88;4190466;28;20248;-86
2023/12/03 08:34:17;;;;;;;15.20;10.15;;;;;;;1.90;76.49;98757.44;4190101;28;20224;-85
2023/12/03 08:36:21;;;;;;;13.65;10.40;;;;;;;1.89;74.92;98760.06;4186031;28;20217;-86
2023/12/03 08:38:24;;;;;;;18.67;11.65;;;;;;;1.91;76.41;98766.03;4187272;28;20266;-85
2023/12/03 08:40:27;;;;;;;17.38;9.90;;;;;;;1.96;76.18;98774.47;4175574;28;20218;-85
2023/12/03 08:42:31;;;;;;;15.35;10.40;;;;;;;2.01;76.02;98767.47;4187623;28;20197;-85
2023/12/03 08:44:34;;;;;;;13.68;9.25;;;;;;;2.06;76.78;98778.50;4182821;28;20225;-85
2023/12/03 08:46:37;;;;;;;16.90;10.07;;;;;;;2.11;77.88;98780.09;4183609;28;20216;-85
2023/12/03 08:48:41;;;;;;;17.15;10.30;;;;;;;2.13;77.99;98788.59;4185149;28;20270;-85
2023/12/03 08:50:44;;;;;;;16.15;10.45;;;;;;;2.15;76.36;98783.41;4187720;28;20205;-85
2023/12/03 08:52:47;;;;;;;16.95;10.50;;;;;;;2.20;75.35;98781.59;4188181;28;20228;-84
2023/12/03 08:54:50;;;;;;;15.73;10.18;;;;;;;2.26;75.87;98773.72;4190452;28;20241;-84
2023/12/03 08:56:54;;;;;;;16.40;10.52;;;;;;;2.34;75.73;98780.34;4188065;28;20197;-83
2023/12/03 08:58:58;;;;;;;15.57;9.57;;;;;;;2.41;75.36;98780.16;4176400;28;20234;-84
2023/12/03 09:01:02;;;;;;;12.57;8.68;;;;;;;2.47;75.26;98774.88;4186715;28;20672;-84
2023/12/03 09:03:05;;;;;;;16.58;10.07;;;;;;;2.51;75.42;98773.91;4183874;28;20232;-84
2023/12/03 09:05:08;;;;;;;16.05;9.88;;;;;;;2.55;74.90;98775.50;4174295;28;20218;-84
2023/12/03 09:07:11;;;;;;;16.63;10.05;;;;;;;2.60;74.67;98767.66;4189024;28;20555;-86
2023/12/03 09:09:14;;;;;;;13.95;9.95;;;;;;;2.66;73.69;98768.38;4172786;28;20202;-85
2023/12/03 09:11:18;;;;;;;19.83;10.82;;;;;;;2.70;73.44;98777.69;4193589;28;20208;-84
2023/12/03 09:13:21;;;;;;;17.00;11.05;;;;;;;2.76;73.23;98784.41;4189750;28;20600;-83
2023/12/03 09:15:26;;;;;;;19.40;10.98;;;;;;;2.80;74.36;98782.53;4185246;28;20222;-83
2023/12/03 09:17:28;;;;;;;16.95;10.45;;;;;;;2.85;74.61;98790.16;4192962;28;20222;-85
2023/12/03 09:19:32;;;;;;;21.27;11.50;;;;;;;2.86;73.34;98791.84;4192465;28;20556;-85
2023/12/03 09:21:35;;;;;;;17.23;10.60;;;;;;;2.90;72.94;98798.56;4188828;28;20635;-85
2023/12/03 09:23:38;;;;;;;19.92;9.77;;;;;;;2.92;72.37;98792.50;4190336;28;20233;-85
2023/12/03 09:25:42;;;;;;;16.60;10.40;;;;;;;2.95;72.89;98792.44;4188180;28;20202;-86
2023/12/03 09:27:45;;;;;;;16.35;10.30;;;;;;;3.00;72.66;98784.59;4185033;28;20285;-84
2023/12/03 09:29:48;;;;;;;15.38;10.73;;;;;;;3.02;73.38;98795.69;4185247;28;20311;-85
2023/12/03 09:31:53;;;;;;;17.58;11.15;;;;;;;3.06;73.73;98792.97;4169677;28;20234;-87
2023/12/03 09:33:59;;;;;;;16.30;11.35;;;;;;;3.09;72.90;98786.91;4183609;28;20202;-84
2023/12/03 09:36:02;;;;;;;16.88;10.57;;;;;;;3.15;73.77;98785.00;4168722;28;20334;-85
2023/12/03 09:38:05;;;;;;;16.83;10.27;;;;;;;3.15;72.62;98779.00;4184439;28;20501;-85
2023/12/03 09:40:11;;;;;;;15.25;9.88;;;;;;;3.18;72.05;98782.31;4191705;28;20202;-85